Nbp Island — V2FH3 — position and weather

sailwx.info

Track history (hours):
 
Tides and Currents Weather Stations Pressure Air Temp Water Temp Dewpoint Dewpoint Depression Visibility Wind Speed Wind Dir Waves Ship Positions

Nbp Island

Last reported at 2016-Sep-30 08:31 UTC. Time now 2016-Sep-30 15:14 UTC.
Position N 37°25' W 010°04'.

Length 107 m; draft 8.3 m.

Type: Cargo ship. MMSI: 305674000.

Date/timePositionNaut miles runAvg speedWind from/ knotsBaromVisibWave heightAir tempDewpointWater temp
2016-Sep-30 08:31N 37°25' W 010°04'2210.9
2016-Sep-30 06:33N 37°45' W 009°53'3210.8
2016-Sep-30 03:33N 38°14' W 009°36'1110.8
2016-Sep-30 02:33N 38°24' W 009°30'26 8.6
2016-Sep-29 23:33N 38°43' W 009°07'2 0.8
2016-Sep-29 21:31N 38°44' W 009°06'0 0.0
2016-Sep-29 20:31N 38°44' W 009°06'0 0.0
2016-Sep-29 19:28N 38°44' W 009°06'0 0.0
2016-Sep-29 16:28N 38°44' W 009°06'0 0.0
2016-Sep-29 15:31N 38°44' W 009°06'0 0.0
2016-Sep-29 13:04N 38°44' W 009°06'0 0.0
2016-Sep-29 00:31N 38°44' W 009°06'0 0.0
2016-Sep-28 21:31N 38°44' W 009°06'0 0.0
2016-Sep-28 19:31N 38°44' W 009°06'0 0.0
2016-Sep-28 16:28N 38°44' W 009°06'0 0.0
2016-Sep-28 15:31N 38°44' W 009°06'0 0.0
2016-Sep-28 08:31N 38°44' W 009°06'0 0.0
2016-Sep-28 03:28N 38°44' W 009°06'0 0.0
2016-Sep-28 02:31N 38°44' W 009°06'0 0.0
2016-Sep-28 01:28N 38°44' W 009°06'0 0.0
2016-Sep-27 23:31N 38°44' W 009°06'0 0.0
2016-Sep-27 19:28N 38°44' W 009°06'0 0.0
2016-Sep-27 14:13N 38°44' W 009°06'0 0.0
2016-Sep-27 13:31N 38°44' W 009°06'0 0.0
2016-Sep-27 10:19N 38°44' W 009°06'0 0.0
2016-Sep-26 20:19N 38°44' W 009°06'0 0.0
2016-Sep-26 19:31N 38°44' W 009°06'0 0.0
2016-Sep-26 15:28N 38°44' W 009°06'0 0.0
2016-Sep-26 13:31N 38°44' W 009°06'0 0.0
2016-Sep-26 11:19N 38°44' W 009°06'0 0.0
2016-Sep-25 17:28N 38°44' W 009°06'0 0.0
2016-Sep-25 16:28N 38°44' W 009°06'0 0.0
2016-Sep-24 12:31N 38°44' W 009°06'0 0.0
2016-Sep-24 09:32N 38°44' W 009°06'46 7.7
2016-Sep-24 03:33N 38°46' W 010°05'1212.0
2016-Sep-24 02:33N 38°57' W 010°04'1312.5
2016-Sep-24 01:33N 39°10' W 010°00'17 0.4
2016-Sep-22 04:27N 39°25' W 009°51'1011.3
2016-Sep-22 03:33N 39°15' W 009°50'3411.4
2016-Sep-22 00:33N 38°40' W 009°50'1110.9
2016-Sep-21 23:33N 38°30' W 009°47'1110.7
2016-Sep-21 22:33N 38°19' W 009°44'3110.5
2016-Sep-21 19:33N 37°49' W 009°35'234 9.0
2016-Sep-20 17:32N 35°54' W 005°19'1 0.2
2016-Sep-20 14:34N 35°54' W 005°19'0 0.3
2016-Sep-20 13:34N 35°55' W 005°19'  
Track history (hours):
 
Tides and Currents Weather Stations Pressure Air Temp Water Temp Dewpoint Dewpoint Depression Visibility Wind Speed Wind Dir Waves Ship Positions

Nbp Island

Last reported at 2016-Sep-30 08:31 UTC. Time now 2016-Sep-30 15:14 UTC.
Position N 37°25' W 010°04'.

Length 107 m; draft 8.3 m.

Type: Cargo ship. MMSI: 305674000.

Date/timePositionNaut miles runAvg speedWind from/ knotsBaromVisibWave heightAir tempDewpointWater temp
2016-Sep-30 08:31N 37°25' W 010°04'2210.9
2016-Sep-30 06:33N 37°45' W 009°53'3210.8
2016-Sep-30 03:33N 38°14' W 009°36'1110.8
2016-Sep-30 02:33N 38°24' W 009°30'26 8.6
2016-Sep-29 23:33N 38°43' W 009°07'2 0.8
2016-Sep-29 21:31N 38°44' W 009°06'0 0.0
2016-Sep-29 20:31N 38°44' W 009°06'0 0.0
2016-Sep-29 19:28N 38°44' W 009°06'0 0.0
2016-Sep-29 16:28N 38°44' W 009°06'0 0.0
2016-Sep-29 15:31N 38°44' W 009°06'0 0.0
2016-Sep-29 13:04N 38°44' W 009°06'0 0.0
2016-Sep-29 00:31N 38°44' W 009°06'0 0.0
2016-Sep-28 21:31N 38°44' W 009°06'0 0.0
2016-Sep-28 19:31N 38°44' W 009°06'0 0.0
2016-Sep-28 16:28N 38°44' W 009°06'0 0.0
2016-Sep-28 15:31N 38°44' W 009°06'0 0.0
2016-Sep-28 08:31N 38°44' W 009°06'0 0.0
2016-Sep-28 03:28N 38°44' W 009°06'0 0.0
2016-Sep-28 02:31N 38°44' W 009°06'0 0.0
2016-Sep-28 01:28N 38°44' W 009°06'0 0.0
2016-Sep-27 23:31N 38°44' W 009°06'0 0.0
2016-Sep-27 19:28N 38°44' W 009°06'0 0.0
2016-Sep-27 14:13N 38°44' W 009°06'0 0.0
2016-Sep-27 13:31N 38°44' W 009°06'0 0.0
2016-Sep-27 10:19N 38°44' W 009°06'0 0.0
2016-Sep-26 20:19N 38°44' W 009°06'0 0.0
2016-Sep-26 19:31N 38°44' W 009°06'0 0.0
2016-Sep-26 15:28N 38°44' W 009°06'0 0.0
2016-Sep-26 13:31N 38°44' W 009°06'0 0.0
2016-Sep-26 11:19N 38°44' W 009°06'0 0.0
2016-Sep-25 17:28N 38°44' W 009°06'0 0.0
2016-Sep-25 16:28N 38°44' W 009°06'0 0.0
2016-Sep-24 12:31N 38°44' W 009°06'0 0.0
2016-Sep-24 09:32N 38°44' W 009°06'46 7.7
2016-Sep-24 03:33N 38°46' W 010°05'1212.0
2016-Sep-24 02:33N 38°57' W 010°04'1312.5
2016-Sep-24 01:33N 39°10' W 010°00'17 0.4
2016-Sep-22 04:27N 39°25' W 009°51'1011.3
2016-Sep-22 03:33N 39°15' W 009°50'3411.4
2016-Sep-22 00:33N 38°40' W 009°50'1110.9
2016-Sep-21 23:33N 38°30' W 009°47'1110.7
2016-Sep-21 22:33N 38°19' W 009°44'3110.5
2016-Sep-21 19:33N 37°49' W 009°35'234 9.0
2016-Sep-20 17:32N 35°54' W 005°19'1 0.2
2016-Sep-20 14:34N 35°54' W 005°19'0 0.3
2016-Sep-20 13:34N 35°55' W 005°19'  

Dump ship's entire track history